VOE6LR LEMD-LFLL
Flight info
| Callsign | VOE6LR |
|---|---|
| Flight time | N/A |
| Altitude | 36000 |
| Route | PINAR N870 SEGRE N871 TOPTU DCT TOU DCT GAI DCT MEN DCT NINUN G53 MEZIN |
| Aircraft | A320/M-SDFGHIJ1RWY/LB1 |
Departure
| Time | 2026-05-01 14:48 |
|---|---|
| Airport | Adolfo Suárez Madrid–Barajas Airport (LEMD) |
Arrival
| Time | N/A |
|---|---|
| Airport | Lyon Saint-Exupéry Airport (LFLL) |
| Time | Latitude | Longitude | Altitude | Speed | Heading |
|---|---|---|---|---|---|
| 2026-05-01 14:28 | 40.47323 | -3.57124 | 1990 ft | 0 kts | 157° |
| 2026-05-01 14:34 | 40.47329 | -3.57127 | 1989 ft | 4 kts | 157° |
| 2026-05-01 14:35 | 40.47354 | -3.57141 | 1991 ft | 4 kts | 157° |
| 2026-05-01 14:35 | 40.47375 | -3.57153 | 1989 ft | 4 kts | 144° |
| 2026-05-01 14:35 | 40.47385 | -3.57168 | 1990 ft | 4 kts | 53° |
| 2026-05-01 14:35 | 40.47365 | -3.57182 | 1990 ft | 4 kts | 8° |
| 2026-05-01 14:36 | 40.47345 | -3.57185 | 1990 ft | 0 kts | 8° |
| 2026-05-01 14:38 | 40.47361 | -3.57182 | 1991 ft | 6 kts | 8° |
| 2026-05-01 14:39 | 40.47416 | -3.57172 | 1991 ft | 8 kts | 8° |
| 2026-05-01 14:39 | 40.47456 | -3.57166 | 1993 ft | 4 kts | 3° |
| 2026-05-01 14:39 | 40.47504 | -3.57181 | 1993 ft | 7 kts | 328° |
| 2026-05-01 14:39 | 40.47534 | -3.57204 | 1995 ft | 5 kts | 344° |
| 2026-05-01 14:40 | 40.47577 | -3.57174 | 1996 ft | 7 kts | 49° |
| 2026-05-01 14:40 | 40.47604 | -3.57130 | 1996 ft | 6 kts | 51° |
| 2026-05-01 14:40 | 40.47642 | -3.57068 | 1996 ft | 9 kts | 50° |
| 2026-05-01 14:40 | 40.47687 | -3.57060 | 1997 ft | 5 kts | 338° |
| 2026-05-01 14:41 | 40.47725 | -3.57094 | 1998 ft | 6 kts | 323° |
| 2026-05-01 14:41 | 40.47775 | -3.57144 | 2000 ft | 15 kts | 322° |
| 2026-05-01 14:41 | 40.47872 | -3.57243 | 2003 ft | 17 kts | 322° |
| 2026-05-01 14:41 | 40.47954 | -3.57326 | 2005 ft | 14 kts | 322° |
| 2026-05-01 14:42 | 40.48029 | -3.57402 | 2003 ft | 13 kts | 322° |
| 2026-05-01 14:42 | 40.48103 | -3.57478 | 2001 ft | 16 kts | 322° |
| 2026-05-01 14:42 | 40.48202 | -3.57579 | 1998 ft | 18 kts | 322° |
| 2026-05-01 14:42 | 40.48302 | -3.57680 | 1995 ft | 19 kts | 322° |
| 2026-05-01 14:43 | 40.48407 | -3.57781 | 1993 ft | 18 kts | 326° |
| 2026-05-01 14:43 | 40.48509 | -3.57857 | 1994 ft | 15 kts | 332° |
| 2026-05-01 14:43 | 40.48582 | -3.57907 | 1998 ft | 11 kts | 333° |
| 2026-05-01 14:43 | 40.48700 | -3.57927 | 1999 ft | 20 kts | 2° |
| 2026-05-01 14:44 | 40.48762 | -3.57804 | 1994 ft | 20 kts | 89° |
| 2026-05-01 14:44 | 40.48764 | -3.57341 | 1986 ft | 28 kts | 90° |
| 2026-05-01 14:44 | 40.48765 | -3.57072 | 1981 ft | 31 kts | 89° |
| 2026-05-01 14:45 | 40.48766 | -3.56787 | 1979 ft | 33 kts | 90° |
| 2026-05-01 14:45 | 40.48770 | -3.56187 | 1960 ft | 19 kts | 83° |
| 2026-05-01 14:45 | 40.48869 | -3.56138 | 1959 ft | 15 kts | 359° |
| 2026-05-01 14:46 | 40.48965 | -3.56139 | 1959 ft | 14 kts | 360° |
| 2026-05-01 14:46 | 40.49330 | -3.56141 | 1959 ft | 25 kts | 360° |
| 2026-05-01 14:46 | 40.49408 | -3.56063 | 1959 ft | 13 kts | 86° |
| 2026-05-01 14:47 | 40.49437 | -3.55967 | 1963 ft | 10 kts | 52° |
| 2026-05-01 14:47 | 40.49482 | -3.55891 | 1962 ft | 13 kts | 51° |
| 2026-05-01 14:47 | 40.49500 | -3.55804 | 1963 ft | 9 kts | 133° |
| 2026-05-01 14:48 | 40.49254 | -3.55554 | 1959 ft | 70 kts | 142° |
| 2026-05-01 14:48 | 40.48708 | -3.54998 | 1949 ft | 128 kts | 141° |
| 2026-05-01 14:48 | 40.46954 | -3.53185 | 2718 ft | 165 kts | 144° |
| 2026-05-01 14:49 | 40.45142 | -3.51350 | 4061 ft | 165 kts | 146° |
| 2026-05-01 14:49 | 40.43337 | -3.49456 | 5197 ft | 169 kts | 135° |
| 2026-05-01 14:50 | 40.42450 | -3.47501 | 5628 ft | 205 kts | 119° |
| 2026-05-01 14:50 | 40.40837 | -3.43122 | 7639 ft | 243 kts | 118° |
| 2026-05-01 14:51 | 40.39852 | -3.40427 | 9134 ft | 251 kts | 118° |
| 2026-05-01 14:51 | 40.39022 | -3.36715 | 10813 ft | 267 kts | 85° |
| 2026-05-01 14:52 | 40.40917 | -3.32239 | 12084 ft | 314 kts | 44° |
| 2026-05-01 14:52 | 40.42561 | -3.30192 | 12604 ft | 339 kts | 43° |
| 2026-05-01 14:52 | 40.46183 | -3.25735 | 14139 ft | 367 kts | 43° |
| 2026-05-01 14:53 | 40.48051 | -3.23411 | 15051 ft | 372 kts | 43° |
| 2026-05-01 14:53 | 40.49939 | -3.21045 | 15965 ft | 377 kts | 43° |
| 2026-05-01 14:53 | 40.51824 | -3.18678 | 16839 ft | 381 kts | 43° |
| 2026-05-01 14:53 | 40.53754 | -3.16253 | 17722 ft | 386 kts | 43° |
| 2026-05-01 14:54 | 40.55706 | -3.13791 | 18562 ft | 390 kts | 43° |
| 2026-05-01 14:54 | 40.57684 | -3.11289 | 19309 ft | 395 kts | 43° |
| 2026-05-01 14:54 | 40.59658 | -3.08792 | 20027 ft | 399 kts | 43° |
| 2026-05-01 14:54 | 40.61677 | -3.06239 | 20749 ft | 404 kts | 43° |
| 2026-05-01 14:55 | 40.63720 | -3.03657 | 21446 ft | 408 kts | 43° |
| 2026-05-01 14:55 | 40.65782 | -3.01043 | 22134 ft | 412 kts | 43° |
| 2026-05-01 14:55 | 40.67825 | -2.98451 | 22772 ft | 416 kts | 43° |
| 2026-05-01 14:55 | 40.69923 | -2.95792 | 23382 ft | 420 kts | 43° |
| 2026-05-01 14:56 | 40.72043 | -2.93108 | 23917 ft | 423 kts | 43° |
| 2026-05-01 14:56 | 40.74179 | -2.90401 | 24382 ft | 427 kts | 43° |
| 2026-05-01 14:56 | 40.76332 | -2.87664 | 24833 ft | 430 kts | 43° |
| 2026-05-01 14:56 | 40.78469 | -2.84944 | 25255 ft | 433 kts | 43° |
| 2026-05-01 14:57 | 40.80645 | -2.82171 | 25678 ft | 435 kts | 43° |
| 2026-05-01 14:57 | 40.85040 | -2.76568 | 26460 ft | 440 kts | 42° |
| 2026-05-01 14:57 | 40.87248 | -2.73750 | 26849 ft | 443 kts | 42° |
| 2026-05-01 14:58 | 40.89472 | -2.70907 | 27235 ft | 446 kts | 43° |
| 2026-05-01 14:58 | 40.91678 | -2.68082 | 27589 ft | 449 kts | 43° |
| 2026-05-01 14:58 | 40.93953 | -2.65163 | 27967 ft | 451 kts | 43° |
| 2026-05-01 14:58 | 40.96179 | -2.62303 | 28342 ft | 453 kts | 43° |
| 2026-05-01 14:59 | 40.98428 | -2.59362 | 28697 ft | 456 kts | 46° |
| 2026-05-01 14:59 | 41.00228 | -2.55891 | 29034 ft | 461 kts | 64° |
| 2026-05-01 14:59 | 41.01171 | -2.51824 | 29348 ft | 464 kts | 83° |
| 2026-05-01 14:59 | 41.01255 | -2.47554 | 29646 ft | 466 kts | 91° |
| 2026-05-01 15:00 | 41.02126 | -2.39036 | 30227 ft | 471 kts | 69° |
| 2026-05-01 15:00 | 41.03599 | -2.35170 | 30471 ft | 471 kts | 53° |
| 2026-05-01 15:00 | 41.05784 | -2.31959 | 30715 ft | 469 kts | 39° |
| 2026-05-01 15:01 | 41.08392 | -2.29355 | 30960 ft | 469 kts | 31° |
| 2026-05-01 15:01 | 41.11168 | -2.27079 | 31233 ft | 469 kts | 28° |
| 2026-05-01 15:01 | 41.13962 | -2.24841 | 31574 ft | 468 kts | 30° |
| 2026-05-01 15:01 | 41.16657 | -2.22504 | 31935 ft | 468 kts | 33° |
| 2026-05-01 15:02 | 41.19290 | -2.19960 | 32288 ft | 467 kts | 36° |
| 2026-05-01 15:02 | 41.20983 | -2.18195 | 32515 ft | 467 kts | 37° |